Time;durP1;ratioP1;P1;durP2;ratioP2;P2;SDS_P1;SDS_P2;PMS_P1;PMS_P2;Temp;Humidity;BMP_temperature;BMP_pressure;BME280_temperature;BME280_humidity;BME280_pressure;Samples;Min_cycle;Max_cycle;Signal;HPM_P1;HPM_P2
2022/06/03 00:02:35;;;;;;;9.83;6.70;;;14.70;1.00;;;;;;4993527;28;20214;-68
2022/06/03 00:05:19;;;;;;;9.47;7.30;;;14.60;1.00;;;;;;4993697;28;20221;-66
2022/06/03 00:08:03;;;;;;;8.73;7.37;;;14.60;1.00;;;;;;4993277;28;20214;-67
2022/06/03 00:10:59;;;;;;;7.73;6.80;;;14.60;1.00;;;;;;4993401;28;20658;-67
2022/06/03 00:13:55;;;;;;;9.43;7.00;;;14.50;1.00;;;;;;4972085;28;20184;-67
2022/06/03 00:16:22;;;;;;;8.90;6.77;;;14.40;1.00;;;;;;4971862;28;20239;-67
2022/06/03 00:18:59;;;;;;;7.37;6.13;;;14.40;1.00;;;;;;4971984;28;20223;-67
2022/06/03 00:21:46;;;;;;;6.80;6.10;;;14.40;1.00;;;;;;4971513;28;20227;-67
2022/06/03 00:24:30;;;;;;;7.00;6.30;;;14.30;1.00;;;;;;4971599;28;20327;-67
2022/06/03 00:27:26;;;;;;;8.50;6.20;;;14.30;1.00;;;;;;4975343;28;20211;-67
2022/06/03 00:30:18;;;;;;;6.80;6.20;;;14.30;1.00;;;;;;4959172;28;20177;-67
2022/06/03 00:32:54;;;;;;;6.77;5.90;;;14.20;1.00;;;;;;4959235;28;20270;-67
2022/06/03 00:35:47;;;;;;;7.13;5.83;;;14.20;1.00;;;;;;4959140;28;20181;-67
2022/06/03 00:38:27;;;;;;;9.17;6.60;;;14.20;1.00;;;;;;4974951;28;20267;-67
2022/06/03 00:41:10;;;;;;;7.80;6.90;;;14.30;1.00;;;;;;4975399;28;20251;-67
2022/06/03 00:43:58;;;;;;;9.20;6.47;;;14.20;1.00;;;;;;4975222;28;20184;-67
2022/06/03 00:46:42;;;;;;;7.97;6.73;;;14.20;1.00;;;;;;4975145;28;20191;-67
2022/06/03 00:49:40;;;;;;;6.77;6.17;;;14.20;1.00;;;;;;4975172;28;20172;-67
2022/06/03 00:52:27;;;;;;;8.00;7.23;;;14.10;1.00;;;;;;4976754;28;20179;-67
2022/06/03 00:54:58;;;;;;;9.83;5.87;;;14.10;1.00;;;;;;4976912;28;20207;-67
2022/06/03 00:57:42;;;;;;;6.93;6.23;;;14.00;1.00;;;;;;4977081;28;20172;-67
2022/06/03 01:00:08;;;;;;;6.37;5.77;;;14.00;1.00;;;;;;4977005;28;20180;-67
2022/06/03 01:02:54;;;;;;;7.30;5.90;;;13.90;1.00;;;;;;4976766;28;20175;-67
2022/06/03 01:05:52;;;;;;;6.03;5.53;;;13.80;1.00;;;;;;4976867;28;20168;-67
2022/06/03 01:08:31;;;;;;;6.60;6.03;;;13.80;1.00;;;;;;4975573;28;20220;-66
2022/06/03 01:11:18;;;;;;;6.30;5.80;;;13.70;1.00;;;;;;4976860;28;20658;-68
2022/06/03 01:13:58;;;;;;;7.13;6.43;;;13.70;1.00;;;;;;4976751;28;20168;-67
2022/06/03 01:16:45;;;;;;;7.03;6.37;;;13.70;1.00;;;;;;4975341;28;20199;-68
2022/06/03 01:19:31;;;;;;;6.70;6.10;;;13.60;1.00;;;;;;4976696;28;20176;-67
2022/06/03 01:22:02;;;;;;;10.33;6.47;;;13.60;1.00;;;;;;4989653;28;20258;-67
2022/06/03 01:24:37;;;;;;;11.83;6.53;;;13.60;1.00;;;;;;4994752;28;20175;-66
2022/06/03 01:27:31;;;;;;;9.00;6.57;;;13.60;1.00;;;;;;4995842;28;20261;-66
2022/06/03 01:30:28;;;;;;;7.53;6.77;;;13.60;1.00;;;;;;4995900;28;20164;-68
2022/06/03 01:33:19;;;;;;;8.30;6.73;;;13.50;1.00;;;;;;4995466;28;20251;-67
2022/06/03 01:35:59;;;;;;;8.33;6.57;;;13.50;1.00;;;;;;4995478;28;20175;-67
2022/06/03 01:38:52;;;;;;;7.13;6.47;;;13.40;1.00;;;;;;4994962;28;20174;-67
2022/06/03 01:42:10;;;;;;;7.50;6.50;;;13.40;1.00;;;;;;4995779;28;20174;-67
2022/06/03 01:44:47;;;;;;;8.63;6.93;;;13.40;1.00;;;;;;4995323;28;20172;-68
2022/06/03 01:47:22;;;;;;;7.30;6.60;;;13.40;1.00;;;;;;4995775;28;20211;-69
2022/06/03 01:50:25;;;;;;;6.90;6.30;;;13.30;1.00;;;;;;4995112;28;20175;-69
2022/06/03 01:53:22;;;;;;;6.87;6.20;;;13.30;1.00;;;;;;4995261;28;20178;-67
2022/06/03 01:56:24;;;;;;;10.60;6.87;;;13.20;1.00;;;;;;4995362;28;20171;-67
2022/06/03 01:58:58;;;;;;;12.23;7.13;;;13.10;1.00;;;;;;4995422;28;20175;-67
2022/06/03 02:01:27;;;;;;;19.30;6.97;;;13.10;1.00;;;;;;4995162;28;20264;-68
2022/06/03 02:04:02;;;;;;;8.20;6.67;;;13.10;1.00;;;;;;4994958;28;20163;-68
2022/06/03 02:07:05;;;;;;;19.43;7.23;;;13.10;1.00;;;;;;4995321;28;20622;-68
2022/06/03 02:09:37;;;;;;;16.67;6.93;;;13.10;1.00;;;;;;4995189;28;20174;-67
2022/06/03 02:12:27;;;;;;;11.30;6.83;;;13.00;1.00;;;;;;4994937;28;20175;-68
2022/06/03 02:15:25;;;;;;;12.77;6.67;;;13.00;1.00;;;;;;4993803;28;20199;-65
2022/06/03 02:18:01;;;;;;;11.83;6.33;;;13.00;1.00;;;;;;4994987;28;20666;-68
2022/06/03 02:20:46;;;;;;;15.63;7.00;;;12.90;1.00;;;;;;4994256;28;20249;-67
2022/06/03 02:23:48;;;;;;;8.17;6.50;;;12.90;1.00;;;;;;4994966;28;20255;-67
2022/06/03 02:26:40;;;;;;;9.40;6.53;;;12.90;1.00;;;;;;4994959;28;20784;-67
2022/06/03 02:32:39;;;;;;;13.23;6.93;;;12.80;1.00;;;;;;4994626;28;20218;-67
2022/06/03 02:35:17;;;;;;;10.67;6.53;;;12.80;1.00;;;;;;4994442;28;20237;-67
2022/06/03 02:38:08;;;;;;;11.57;6.67;;;12.80;1.00;;;;;;4994669;28;20665;-67
2022/06/03 02:41:03;;;;;;;7.23;6.53;;;12.80;1.00;;;;;;4993319;28;20262;-67
2022/06/03 02:43:53;;;;;;;8.20;6.30;;;12.80;1.00;;;;;;4994420;28;20168;-67
2022/06/03 02:46:21;;;;;;;9.37;6.43;;;12.90;1.00;;;;;;4994538;28;20250;-68
2022/06/03 02:49:14;;;;;;;7.20;6.37;;;12.90;1.00;;;;;;4994124;28;20262;-67
2022/06/03 02:52:00;;;;;;;7.00;6.40;;;13.00;1.00;;;;;;4994282;28;20167;-67
2022/06/03 02:54:53;;;;;;;9.23;8.33;;;13.10;1.00;;;;;;4994355;28;20175;-66
2022/06/03 02:57:31;;;;;;;9.43;7.20;;;13.10;1.00;;;;;;4993118;28;20551;-67
2022/06/03 03:00:05;;;;;;;9.97;7.87;;;13.10;1.00;;;;;;4994334;28;20175;-68
2022/06/03 03:02:55;;;;;;;11.63;6.87;;;13.10;1.00;;;;;;4993925;28;20610;-66
2022/06/03 03:05:56;;;;;;;8.50;7.53;;;13.10;1.00;;;;;;4994215;28;20252;-67
2022/06/03 03:08:27;;;;;;;7.83;7.13;;;13.10;1.00;;;;;;4994173;28;20195;-68
2022/06/03 03:11:11;;;;;;;8.27;7.37;;;13.10;1.00;;;;;;4993930;28;20187;-66
2022/06/03 03:14:14;;;;;;;8.23;7.10;;;13.00;1.00;;;;;;4994139;28;20275;-66
2022/06/03 03:17:04;;;;;;;9.17;7.67;;;13.10;1.00;;;;;;4993707;28;20175;-68
2022/06/03 03:20:09;;;;;;;9.97;7.40;;;13.00;1.00;;;;;;4993766;28;20175;-67
2022/06/03 03:22:53;;;;;;;7.57;6.97;;;13.00;1.00;;;;;;4972272;28;20212;-66
2022/06/03 03:25:35;;;;;;;8.67;7.70;;;13.00;1.00;;;;;;4972302;28;20191;-68
2022/06/03 03:28:15;;;;;;;7.97;7.10;;;13.00;1.00;;;;;;4972253;28;20222;-67
2022/06/03 03:30:45;;;;;;;8.77;7.67;;;12.90;1.00;;;;;;4971952;28;20176;-67
2022/06/03 03:33:40;;;;;;;9.97;8.13;;;12.90;1.00;;;;;;4972211;28;20317;-67
2022/06/03 03:36:09;;;;;;;10.73;8.13;;;12.90;1.00;;;;;;4972343;28;20590;-67
2022/06/03 03:38:53;;;;;;;12.23;7.50;;;12.80;1.00;;;;;;4971942;28;20647;-67
2022/06/03 03:41:29;;;;;;;8.53;7.63;;;12.80;1.00;;;;;;4971949;28;20211;-67
2022/06/03 03:44:12;;;;;;;8.37;7.67;;;12.80;1.00;;;;;;4972026;28;20179;-67
2022/06/03 03:46:49;;;;;;;9.67;7.43;;;12.90;1.00;;;;;;4971476;28;20184;-67
2022/06/03 03:49:39;;;;;;;10.10;7.50;;;13.00;1.00;;;;;;4972268;28;20183;-66
2022/06/03 03:52:35;;;;;;;8.90;8.00;;;13.30;1.00;;;;;;4971500;28;20188;-67
2022/06/03 03:55:20;;;;;;;9.97;8.40;;;13.60;1.00;;;;;;4971567;28;20172;-67
2022/06/03 03:58:00;;;;;;;9.30;8.40;;;14.00;1.00;;;;;;4971909;28;20588;-67
2022/06/03 04:00:51;;;;;;;9.23;7.90;;;14.40;1.00;;;;;;4994148;28;20174;-67
2022/06/03 04:03:19;;;;;;;9.83;7.10;;;14.90;1.00;;;;;;4997639;28;20167;-67
2022/06/03 04:06:04;;;;;;;7.80;6.80;;;15.30;99.90;;;;;;4997308;28;20229;-67
2022/06/03 04:09:07;;;;;;;7.10;6.43;;;15.60;99.90;;;;;;4997118;28;20206;-67
2022/06/03 04:11:57;;;;;;;11.27;7.20;;;16.10;1.00;;;;;;4995265;28;20194;-67
2022/06/03 04:14:53;;;;;;;9.60;6.73;;;17.30;1.00;;;;;;4996717;28;20195;-67
2022/06/03 04:17:53;;;;;;;11.47;6.13;;;17.80;1.00;;;;;;4997417;28;20167;-67
2022/06/03 04:20:25;;;;;;;11.20;6.53;;;17.60;1.00;;;;;;4995401;28;20263;-68
2022/06/03 04:23:09;;;;;;;17.17;7.17;;;18.20;1.00;;;;;;4996647;28;20202;-68
2022/06/03 04:25:52;;;;;;;16.27;6.97;;;18.20;51.80;;;;;;4995597;28;20631;-68
2022/06/03 04:28:36;;;;;;;17.10;7.23;;;18.20;1.00;;;;;;4996507;28;20211;-68
2022/06/03 04:31:51;;;;;;;11.80;7.03;;;18.00;28.60;;;;;;4996151;28;20608;-68
2022/06/03 04:34:19;;;;;;;23.50;7.70;;;18.30;99.90;;;;;;4996388;28;20201;-68
2022/06/03 04:36:57;;;;;;;12.30;7.60;;;18.60;1.00;;;;;;4996578;28;20171;-68
2022/06/03 04:39:47;;;;;;;15.10;7.33;;;19.40;99.90;;;;;;4996236;28;21254;-68
2022/06/03 04:42:47;;;;;;;16.52;7.07;;;19.80;1.00;;;;;;4996427;28;20175;-68
2022/06/03 04:45:32;;;;;;;22.30;7.75;;;20.10;1.00;;;;;;4995935;28;20163;-68
2022/06/03 04:48:44;;;;;;;9.82;6.43;;;20.80;1.00;;;;;;4996168;28;20211;-67
2022/06/03 04:51:59;;;;;;;9.48;5.65;;;20.90;1.00;;;;;;4996135;28;20285;-67
2022/06/03 04:55:15;;;;;;;6.93;5.72;;;21.40;1.00;;;;;;4995890;28;20194;-68
2022/06/03 04:58:09;;;;;;;10.77;6.18;;;21.80;99.90;;;;;;4974607;28;20219;-68
2022/06/03 05:01:04;;;;;;;13.00;6.10;;;21.80;99.90;;;;;;4974339;28;20176;-68
2022/06/03 05:03:41;;;;;;;5.97;5.47;;;21.30;99.90;;;;;;4968249;28;20184;-69
2022/06/03 05:06:33;;;;;;;6.57;5.78;;;21.10;99.90;;;;;;4974657;28;20636;-69
2022/06/03 05:09:18;;;;;;;5.90;5.30;;;19.80;1.00;;;;;;4973697;28;20207;-68
2022/06/03 05:12:08;;;;;;;9.52;5.75;;;20.30;1.00;;;;;;4972457;28;20319;-69
2022/06/03 05:15:03;;;;;;;7.68;6.25;;;20.70;1.00;;;;;;4973476;28;20199;-69
2022/06/03 05:17:57;;;;;;;7.55;5.97;;;21.60;1.00;;;;;;4973822;28;20180;-68
2022/06/03 05:20:34;;;;;;;10.77;5.95;;;22.60;99.90;;;;;;4972959;28;20275;-69
2022/06/03 05:23:28;;;;;;;6.95;5.85;;;22.60;99.90;;;;;;4973803;28;20651;-72
2022/06/03 05:26:23;;;;;;;8.38;5.97;;;23.70;99.90;;;;;;4973298;28;20215;-69
2022/06/03 05:29:26;;;;;;;5.65;5.25;;;23.90;99.90;;;;;;4973270;28;20207;-69
2022/06/03 05:32:16;;;;;;;7.00;5.47;;;23.00;99.90;;;;;;4972668;28;20203;-70
2022/06/03 05:34:47;;;;;;;8.50;5.72;;;22.50;99.90;;;;;;4995411;28;20245;-69
2022/06/03 05:37:58;;;;;;;5.80;5.30;;;23.30;99.90;;;;;;4993455;28;20247;-71
2022/06/03 05:40:56;;;;;;;5.85;5.30;;;23.80;99.90;;;;;;4972705;28;20261;-71
2022/06/03 05:43:43;;;;;;;7.80;5.70;;;25.20;99.90;;;;;;4973140;28;20180;-69
2022/06/03 05:46:33;;;;;;;10.90;5.65;;;25.80;99.90;;;;;;4972696;28;20662;-70
2022/06/03 05:49:17;;;;;;;6.15;4.80;;;25.80;99.90;;;;;;4973426;28;20212;-71
2022/06/03 05:52:06;;;;;;;5.80;5.15;;;27.50;99.90;;;;;;4972110;28;20537;-71
2022/06/03 05:54:39;;;;;;;5.80;5.22;;;27.20;99.90;;;;;;4972921;28;20180;-71
2022/06/03 05:57:19;;;;;;;9.98;5.15;;;27.50;99.90;;;;;;4972785;28;20256;-71
2022/06/03 06:00:00;;;;;;;5.57;5.18;;;27.20;99.90;;;;;;4972471;28;20310;-72
2022/06/03 06:03:02;;;;;;;6.15;5.55;;;27.20;99.90;;;;;;4972303;28;20172;-71
2022/06/03 06:05:30;;;;;;;7.78;5.28;;;28.00;99.90;;;;;;4972503;28;20270;-70
2022/06/03 06:08:10;;;;;;;7.13;5.05;;;28.00;99.90;;;;;;4972441;28;20211;-71
2022/06/03 06:10:54;;;;;;;5.63;5.05;;;26.70;99.90;;;;;;4971866;28;20172;-71
2022/06/03 06:13:48;;;;;;;6.00;5.03;;;26.00;99.90;;;;;;4972981;28;20699;-71
2022/06/03 06:16:40;;;;;;;5.40;4.97;;;26.30;99.90;;;;;;4977085;28;20294;-70
2022/06/03 06:19:12;;;;;;;5.65;5.20;;;26.30;99.90;;;;;;4992909;28;20267;-71
2022/06/03 06:21:53;;;;;;;6.50;4.95;;;25.90;99.90;;;;;;4992845;28;20222;-71
2022/06/03 06:24:54;;;;;;;5.72;5.15;;;26.20;99.90;;;;;;4993370;28;20168;-70
2022/06/03 06:27:40;;;;;;;5.30;4.90;;;26.20;99.90;;;;;;4992391;28;20305;-71
2022/06/03 06:30:36;;;;;;;5.20;4.80;;;27.30;99.90;;;;;;4992997;28;20659;-73
2022/06/03 06:33:38;;;;;;;5.47;4.95;;;26.90;99.90;;;;;;4993643;28;20183;-72
2022/06/03 06:36:37;;;;;;;7.15;4.93;;;27.40;99.90;;;;;;4992903;28;20661;-71
2022/06/03 06:39:14;;;;;;;4.95;4.40;;;27.20;99.90;;;;;;4955294;28;20647;-72
2022/06/03 06:42:22;;;;;;;5.05;4.60;;;27.60;99.90;;;;;;4972288;28;20238;-71
2022/06/03 06:45:21;;;;;;;5.72;5.20;;;26.70;99.90;;;;;;4914118;29;20347;-72
2022/06/03 06:48:15;;;;;;;5.90;4.68;;;27.60;99.90;;;;;;4898166;29;20701;-72
2022/06/03 06:50:54;;;;;;;5.55;5.10;;;28.10;99.90;;;;;;4913873;29;20171;-70
2022/06/03 06:53:41;;;;;;;5.32;4.80;;;28.20;99.90;;;;;;4914470;29;20189;-71
2022/06/03 06:56:31;;;;;;;7.78;5.18;;;27.90;99.90;;;;;;4913842;29;20182;-71
2022/06/03 06:59:36;;;;;;;5.25;4.75;;;27.50;99.90;;;;;;4914719;29;20646;-71
2022/06/03 07:02:18;;;;;;;5.35;4.95;;;27.00;99.90;;;;;;4876617;29;20374;-71
2022/06/03 07:05:01;;;;;;;8.02;5.43;;;27.10;99.90;;;;;;4876960;29;20272;-70
2022/06/03 07:07:38;;;;;;;5.45;4.97;;;27.10;99.90;;;;;;4876548;29;20258;-71
2022/06/03 07:10:42;;;;;;;6.30;4.50;;;26.20;99.90;;;;;;4876104;29;20647;-70
2022/06/03 07:13:21;;;;;;;9.27;5.32;;;25.60;99.90;;;;;;4858026;29;20684;-71
2022/06/03 07:16:10;;;;;;;9.55;5.10;;;25.70;99.90;;;;;;4875189;29;20639;-70
2022/06/03 07:21:58;;;;;;;5.35;4.57;;;27.60;99.90;;;;;;4894923;29;20584;-71
2022/06/03 07:24:37;;;;;;;5.07;4.68;;;28.50;99.90;;;;;;4857456;29;20271;-70
2022/06/03 07:27:09;;;;;;;5.30;4.78;;;28.90;99.90;;;;;;4858390;29;20567;-71
2022/06/03 07:29:48;;;;;;;5.20;4.47;;;28.70;99.90;;;;;;4857788;29;20188;-73
2022/06/03 07:32:28;;;;;;;4.60;4.25;;;27.10;99.90;;;;;;4853800;29;20204;-72
2022/06/03 07:35:07;;;;;;;4.80;4.38;;;27.70;99.90;;;;;;4856667;29;20188;-72
2022/06/03 07:37:45;;;;;;;4.65;4.35;;;28.80;99.90;;;;;;4858289;29;20675;-72
2022/06/03 07:40:13;;;;;;;4.70;4.20;;;29.20;99.90;;;;;;4876045;29;20191;-71
2022/06/03 07:42:55;;;;;;;4.63;3.92;;;27.70;99.90;;;;;;4876040;29;20194;-71
2022/06/03 07:45:39;;;;;;;5.03;4.20;;;27.10;99.90;;;;;;4877043;29;20340;-71
2022/06/03 07:48:12;;;;;;;5.65;3.67;;;27.20;99.90;;;;;;4928039;29;20261;-72
2022/06/03 07:50:46;;;;;;;4.28;3.88;;;27.90;99.90;;;;;;4948112;29;20263;-73
2022/06/03 07:53:23;;;;;;;5.50;3.80;;;28.10;99.90;;;;;;4952140;29;20509;-73
2022/06/03 07:55:54;;;;;;;3.80;3.50;;;28.30;99.90;;;;;;4951554;29;20242;-72
2022/06/03 07:58:23;;;;;;;4.78;3.45;;;28.20;99.90;;;;;;4951213;29;20181;-72
2022/06/03 08:00:49;;;;;;;6.90;4.00;;;27.70;99.90;;;;;;4960509;28;20244;-73
2022/06/03 08:03:22;;;;;;;5.18;4.32;;;27.20;99.90;;;;;;4992694;28;20250;-74
2022/06/03 08:05:54;;;;;;;5.50;3.78;;;28.00;99.90;;;;;;4991191;28;20176;-73
2022/06/03 08:11:29;;;;;;;4.13;3.45;;;29.50;98.10;;;;;;4970516;28;20167;-72
2022/06/03 08:13:57;;;;;;;4.57;3.20;;;29.50;94.20;;;;;;4970837;28;20195;-73
2022/06/03 08:16:29;;;;;;;4.22;3.67;;;30.10;92.40;;;;;;4970910;28;20168;-73
2022/06/03 08:19:06;;;;;;;5.05;3.40;;;30.00;90.40;;;;;;4970592;28;20188;-73
2022/06/03 08:21:32;;;;;;;5.15;3.58;;;30.30;87.10;;;;;;4970524;28;20235;-73
2022/06/03 08:23:59;;;;;;;3.60;3.40;;;30.60;83.20;;;;;;4971321;28;20168;-75
2022/06/03 08:26:27;;;;;;;4.00;3.67;;;30.20;80.90;;;;;;4970734;28;20243;-73
2022/06/03 08:29:11;;;;;;;5.85;3.70;;;31.20;75.10;;;;;;4970518;28;20216;-73
2022/06/03 08:31:37;;;;;;;3.70;3.40;;;30.80;71.10;;;;;;4970542;28;20275;-73
2022/06/03 08:34:07;;;;;;;4.10;3.20;;;30.00;69.60;;;;;;4970950;28;20693;-72
2022/06/03 08:36:37;;;;;;;5.38;3.30;;;28.90;78.60;;;;;;4970966;28;20172;-72
2022/06/03 08:39:08;;;;;;;5.35;3.20;;;28.20;85.80;;;;;;4971914;28;20208;-72
2022/06/03 08:41:47;;;;;;;5.15;3.25;;;28.50;88.50;;;;;;4954564;28;20176;-72
2022/06/03 08:44:41;;;;;;;3.85;2.72;;;29.20;90.30;;;;;;4973928;28;20180;-72
2022/06/03 08:47:36;;;;;;;5.97;3.17;;;29.40;85.80;;;;;;4994867;28;20191;-72
2022/06/03 08:50:13;;;;;;;5.05;3.20;;;29.50;97.60;;;;;;4995214;28;20211;-72
2022/06/03 08:53:06;;;;;;;4.00;2.83;;;28.40;89.80;;;;;;4995540;28;20167;-72
2022/06/03 08:55:37;;;;;;;5.68;2.85;;;29.00;86.80;;;;;;4995844;28;20273;-73
2022/06/03 08:58:26;;;;;;;3.05;2.70;;;29.30;83.30;;;;;;4995119;28;20193;-72
2022/06/03 09:01:15;;;;;;;5.40;2.47;;;30.10;83.40;;;;;;4995829;28;20653;-72
2022/06/03 09:03:49;;;;;;;5.35;2.50;;;30.80;74.10;;;;;;4993727;28;20175;-72
2022/06/03 09:06:26;;;;;;;5.38;2.90;;;29.40;79.40;;;;;;4995502;28;20166;-74
2022/06/03 09:08:59;;;;;;;3.03;2.45;;;29.50;74.80;;;;;;4995147;28;20292;-73
2022/06/03 09:12:12;;;;;;;3.85;2.30;;;29.20;79.60;;;;;;4995039;28;20187;-74
2022/06/03 09:14:43;;;;;;;3.45;2.53;;;29.50;79.90;;;;;;4993256;28;20211;-72
2022/06/03 09:17:49;;;;;;;2.40;2.10;;;29.80;80.20;;;;;;4992884;28;20175;-72
2022/06/03 09:20:58;;;;;;;3.83;2.17;;;29.90;74.50;;;;;;4915208;29;20272;-72
2022/06/03 09:23:26;;;;;;;3.13;2.00;;;30.30;70.90;;;;;;4915214;29;20661;-72
2022/06/03 09:25:57;;;;;;;8.43;2.47;;;30.90;65.90;;;;;;4916214;29;20194;-72
2022/06/03 09:28:31;;;;;;;2.70;2.10;;;31.20;59.60;;;;;;4915561;29;20274;-72
2022/06/03 09:31:01;;;;;;;2.35;2.20;;;29.60;64.70;;;;;;4915804;29;20264;-70
2022/06/03 09:33:28;;;;;;;4.18;2.40;;;28.50;65.30;;;;;;4916023;29;20185;-70
2022/06/03 09:35:57;;;;;;;4.65;2.03;;;27.00;81.90;;;;;;4916109;29;20550;-71
2022/06/03 09:38:27;;;;;;;2.50;2.28;;;26.60;90.30;;;;;;4916050;29;20178;-70
2022/06/03 09:40:58;;;;;;;3.85;2.42;;;26.70;95.20;;;;;;4915571;29;20194;-69
2022/06/03 09:43:34;;;;;;;2.10;2.00;;;26.90;96.00;;;;;;4915975;29;20186;-71
2022/06/03 09:46:02;;;;;;;3.72;2.45;;;26.90;96.40;;;;;;4916072;29;20213;-70
2022/06/03 09:48:31;;;;;;;3.53;2.30;;;26.60;95.80;;;;;;4915320;29;20222;-69
2022/06/03 09:51:07;;;;;;;2.75;2.25;;;26.40;99.90;;;;;;4926386;29;20186;-69
2022/06/03 09:53:36;;;;;;;2.72;2.28;;;26.00;99.90;;;;;;4945425;28;20183;-71
2022/06/03 09:56:07;;;;;;;2.63;2.38;;;25.80;99.90;;;;;;4974950;28;20180;-70
2022/06/03 09:58:34;;;;;;;2.40;2.20;;;26.10;99.90;;;;;;4974541;28;20176;-71
2022/06/03 10:01:03;;;;;;;4.22;2.70;;;26.30;99.90;;;;;;4974886;28;20180;-71
2022/06/03 10:03:28;;;;;;;4.28;2.65;;;26.20;99.90;;;;;;4973029;28;20492;-71
2022/06/03 10:05:57;;;;;;;2.13;1.90;;;26.80;99.90;;;;;;4974825;28;20179;-71
2022/06/03 10:08:28;;;;;;;2.00;1.90;;;27.50;98.30;;;;;;4974668;28;20296;-70
2022/06/03 10:13:42;;;;;;;2.15;2.05;;;27.10;94.60;;;;;;4975312;28;20231;-70
2022/06/03 10:16:12;;;;;;;2.47;2.28;;;25.90;98.30;;;;;;4974567;28;20213;-71
2022/06/03 10:18:49;;;;;;;2.50;2.33;;;25.70;99.70;;;;;;4974431;28;20182;-70
2022/06/03 10:21:15;;;;;;;2.20;2.00;;;25.60;99.90;;;;;;4973992;28;20231;-70
2022/06/03 10:23:45;;;;;;;5.13;2.30;;;26.30;99.90;;;;;;4974486;28;20642;-69
2022/06/03 10:26:38;;;;;;;2.47;2.00;;;26.20;99.90;;;;;;4983146;28;20603;-70
2022/06/03 10:29:14;;;;;;;3.47;2.60;;;26.10;99.90;;;;;;4993671;28;20694;-69
2022/06/03 10:31:40;;;;;;;2.72;1.95;;;26.40;99.90;;;;;;4992668;28;20182;-70
2022/06/03 10:34:14;;;;;;;4.43;2.22;;;26.70;99.30;;;;;;4993272;28;20183;-70
2022/06/03 10:36:44;;;;;;;2.40;2.20;;;26.90;99.50;;;;;;4993944;28;20586;-70
2022/06/03 10:39:14;;;;;;;3.95;2.22;;;26.80;98.60;;;;;;4993904;28;20190;-68
2022/06/03 10:41:43;;;;;;;2.95;2.45;;;27.80;96.90;;;;;;4992679;28;20175;-69
2022/06/03 10:44:36;;;;;;;2.70;1.88;;;28.20;90.80;;;;;;4973798;28;20172;-70
2022/06/03 10:47:15;;;;;;;1.92;1.83;;;27.20;88.60;;;;;;4973183;28;20175;-70
2022/06/03 10:49:58;;;;;;;2.15;1.90;;;26.80;92.90;;;;;;4973771;28;20255;-70
2022/06/03 11:01:08;;;;;;;5.47;3.30;;;26.10;94.20;;;;;;4973611;28;20226;-70
2022/06/03 11:03:38;;;;;;;2.90;2.10;;;26.20;93.40;;;;;;4973646;28;20614;-69
2022/06/03 11:06:07;;;;;;;1.80;1.70;;;26.50;93.10;;;;;;4973974;28;20164;-69
2022/06/03 11:08:46;;;;;;;3.90;2.20;;;26.10;94.70;;;;;;4973351;28;20231;-71
2022/06/03 11:11:12;;;;;;;2.97;2.03;;;26.30;95.40;;;;;;4973125;28;20195;-70
2022/06/03 11:13:41;;;;;;;2.47;2.28;;;26.70;93.60;;;;;;4972399;28;20211;-70
2022/06/03 11:16:20;;;;;;;3.63;3.10;;;26.20;93.80;;;;;;4973888;28;20200;-69
2022/06/03 11:18:46;;;;;;;2.17;1.98;;;26.00;94.80;;;;;;4971899;28;20682;-70
2022/06/03 11:21:23;;;;;;;2.53;1.80;;;26.20;96.50;;;;;;4973367;28;20219;-68
2022/06/03 11:23:49;;;;;;;4.05;2.60;;;26.10;98.50;;;;;;4974107;28;20255;-69
2022/06/03 11:26:15;;;;;;;2.35;1.98;;;26.60;99.40;;;;;;4973550;28;20176;-70
2022/06/03 11:28:51;;;;;;;2.70;2.17;;;26.60;94.00;;;;;;4973788;28;20274;-70
2022/06/03 11:31:25;;;;;;;4.35;2.58;;;26.30;93.60;;;;;;4973221;28;20199;-70
2022/06/03 11:33:53;;;;;;;3.22;3.03;;;25.80;92.50;;;;;;4973978;28;20172;-68
2022/06/03 11:36:42;;;;;;;2.38;2.00;;;25.80;94.00;;;;;;4973295;28;20183;-69
2022/06/03 11:39:35;;;;;;;2.20;2.00;;;26.10;92.60;;;;;;4973263;28;20251;-70
2022/06/03 11:42:36;;;;;;;2.92;2.63;;;26.50;90.90;;;;;;4984691;28;20183;-71
2022/06/03 11:45:24;;;;;;;2.75;2.22;;;26.40;90.60;;;;;;4977234;28;20194;-70
2022/06/03 11:48:13;;;;;;;2.65;1.85;;;26.10;89.80;;;;;;4991157;28;20574;-70
2022/06/03 11:50:38;;;;;;;5.03;1.70;;;26.10;83.30;;;;;;4992506;28;20226;-70
2022/06/03 11:53:04;;;;;;;1.95;1.85;;;26.30;82.90;;;;;;4991605;28;20171;-69
2022/06/03 11:55:32;;;;;;;4.45;2.92;;;25.70;85.00;;;;;;4992149;28;20679;-70
2022/06/03 11:58:23;;;;;;;4.20;3.80;;;25.80;90.10;;;;;;4992555;28;20175;-71
2022/06/03 12:00:55;;;;;;;2.80;2.58;;;26.00;87.00;;;;;;4992348;28;20658;-70
2022/06/03 12:03:38;;;;;;;2.85;2.42;;;26.40;87.70;;;;;;4992873;28;20179;-70
2022/06/03 12:06:33;;;;;;;4.82;2.53;;;26.70;80.80;;;;;;4992604;28;20549;-69
2022/06/03 12:09:31;;;;;;;3.05;2.75;;;26.10;86.60;;;;;;4990760;28;20250;-70
2022/06/03 12:14:54;;;;;;;1.73;1.63;;;26.30;82.10;;;;;;4990163;28;20261;-70
2022/06/03 12:17:28;;;;;;;2.22;2.13;;;26.30;81.90;;;;;;4990162;28;20647;-71
2022/06/03 12:19:54;;;;;;;2.58;2.33;;;26.30;81.30;;;;;;4990214;28;20190;-71
2022/06/03 12:22:32;;;;;;;3.10;1.73;;;26.30;84.00;;;;;;4992107;28;20234;-70
2022/06/03 12:25:19;;;;;;;1.92;1.73;;;26.50;81.10;;;;;;4994133;28;20673;-70
2022/06/03 12:27:52;;;;;;;3.00;2.03;;;26.30;78.80;;;;;;4916742;29;20229;-70
2022/06/03 12:30:41;;;;;;;2.65;2.30;;;26.90;79.80;;;;;;4916789;29;20182;-68
2022/06/03 12:33:19;;;;;;;3.60;1.77;;;26.60;78.00;;;;;;4916377;29;20245;-69
2022/06/03 12:35:53;;;;;;;1.77;1.67;;;26.20;78.90;;;;;;4916664;29;20173;-70
2022/06/03 12:38:21;;;;;;;3.47;1.90;;;26.90;95.20;;;;;;4916977;29;20177;-70
2022/06/03 12:40:48;;;;;;;2.42;2.22;;;27.20;72.60;;;;;;4916216;29;20626;-70
2022/06/03 12:43:29;;;;;;;4.50;2.28;;;26.00;74.60;;;;;;4915958;29;20590;-70
2022/06/03 12:46:03;;;;;;;1.80;1.70;;;25.80;78.70;;;;;;4916592;29;20245;-70
2022/06/03 12:48:44;;;;;;;2.45;1.70;;;25.70;81.30;;;;;;4916335;29;20213;-71
2022/06/03 12:51:22;;;;;;;1.90;1.60;;;25.90;83.90;;;;;;4916194;29;20190;-70
2022/06/03 12:53:50;;;;;;;2.25;1.70;;;26.10;80.80;;;;;;4899917;29;20225;-70
2022/06/03 12:56:38;;;;;;;2.00;1.90;;;26.50;83.20;;;;;;4915605;29;20272;-71
2022/06/03 12:59:31;;;;;;;3.55;2.50;;;26.10;81.70;;;;;;4915832;29;20678;-71
2022/06/03 13:02:01;;;;;;;2.45;2.25;;;26.00;87.40;;;;;;4913502;29;20178;-71
2022/06/03 13:04:44;;;;;;;2.58;2.10;;;26.00;87.40;;;;;;4935482;28;20180;-71
2022/06/03 13:07:13;;;;;;;12.65;9.13;;;26.20;89.90;;;;;;4974812;28;20170;-71
2022/06/03 13:09:55;;;;;;;2.10;1.70;;;26.60;84.10;;;;;;4975476;28;20178;-71
2022/06/03 13:12:33;;;;;;;2.60;2.40;;;26.00;82.50;;;;;;4971611;28;20183;-71
2022/06/03 13:15:17;;;;;;;3.88;2.10;;;25.60;87.90;;;;;;4973269;28;20206;-70
2022/06/03 13:17:59;;;;;;;4.47;1.85;;;26.00;87.70;;;;;;4974617;28;20306;-70
2022/06/03 13:20:46;;;;;;;2.47;2.10;;;26.10;84.20;;;;;;4975503;28;20259;-69
2022/06/03 13:23:26;;;;;;;3.50;1.70;;;25.80;87.50;;;;;;4994811;28;20245;-70
2022/06/03 13:25:56;;;;;;;3.20;2.90;;;26.20;86.20;;;;;;4994266;28;20242;-71
2022/06/03 13:28:36;;;;;;;3.28;1.90;;;26.30;86.00;;;;;;4994303;28;20210;-70
2022/06/03 13:31:21;;;;;;;2.70;2.15;;;26.10;84.80;;;;;;4994639;28;20259;-70
2022/06/03 13:34:10;;;;;;;2.67;2.08;;;26.30;87.30;;;;;;4993896;28;20178;-70
2022/06/03 13:36:50;;;;;;;2.88;2.10;;;26.10;86.80;;;;;;4994150;28;20211;-69
2022/06/03 13:39:24;;;;;;;3.60;2.50;;;25.40;90.10;;;;;;4995030;28;20274;-69
2022/06/03 13:44:51;;;;;;;2.38;1.98;;;25.40;94.70;;;;;;4994834;28;20183;-70
2022/06/03 13:47:24;;;;;;;4.72;2.28;;;25.60;94.70;;;;;;4993964;28;20599;-70
2022/06/03 13:49:57;;;;;;;2.13;1.92;;;25.80;94.30;;;;;;4994175;28;20210;-70
2022/06/03 13:52:29;;;;;;;2.28;2.10;;;25.70;93.00;;;;;;4993845;28;20175;-71
2022/06/03 13:55:24;;;;;;;3.65;2.40;;;25.80;90.80;;;;;;4993397;28;20314;-69
2022/06/03 13:58:00;;;;;;;2.50;2.30;;;25.90;92.90;;;;;;4993011;28;20225;-71
2022/06/03 14:00:48;;;;;;;3.47;2.03;;;26.10;93.50;;;;;;4993292;28;20178;-70
2022/06/03 14:03:17;;;;;;;2.60;2.30;;;26.00;91.60;;;;;;4991263;28;20638;-70
2022/06/03 14:05:51;;;;;;;3.53;1.90;;;25.90;92.60;;;;;;4990754;28;20211;-70
2022/06/03 14:08:44;;;;;;;2.00;1.77;;;25.50;93.30;;;;;;4992304;28;20222;-70
2022/06/03 14:11:15;;;;;;;2.15;1.92;;;25.40;91.70;;;;;;4991369;28;20175;-70
2022/06/03 14:13:55;;;;;;;2.13;1.77;;;25.50;96.40;;;;;;4992168;28;20263;-69
2022/06/03 14:16:40;;;;;;;3.45;1.77;;;25.40;98.90;;;;;;4991743;28;20179;-69
2022/06/03 14:19:11;;;;;;;1.85;1.70;;;25.40;97.40;;;;;;4991795;28;20258;-70
2022/06/03 14:21:41;;;;;;;1.90;1.70;;;25.40;97.70;;;;;;4991336;28;20262;-70
2022/06/03 14:24:31;;;;;;;3.22;2.05;;;25.70;96.70;;;;;;4973993;28;20255;-70
2022/06/03 14:27:10;;;;;;;3.22;1.98;;;26.00;95.60;;;;;;4991471;28;20227;-71
2022/06/03 14:29:48;;;;;;;1.90;1.80;;;25.90;93.70;;;;;;4975065;28;20269;-71
2022/06/03 14:32:18;;;;;;;2.10;1.75;;;25.60;94.60;;;;;;4991390;28;20229;-70